Time;durP1;ratioP1;P1;durP2;ratioP2;P2;SDS_P1;SDS_P2;PMS_P1;PMS_P2;Temp;Humidity;BMP_temperature;BMP_pressure;BME280_temperature;BME280_humidity;BME280_pressure;Samples;Min_cycle;Max_cycle;Signal;HPM_P1;HPM_P2
2023/10/17 00:01:04;;;;;;;5.60;4.20;;;6.60;99.90;;;;;;5062120;28;20041;-35
2023/10/17 00:03:30;;;;;;;5.63;4.30;;;6.60;99.90;;;;;;5067134;28;20044;-35
2023/10/17 00:05:56;;;;;;;6.63;4.32;;;6.60;99.90;;;;;;5063144;28;20070;-35
2023/10/17 00:08:23;;;;;;;4.40;4.00;;;6.60;99.90;;;;;;5063343;28;20410;-35
2023/10/17 00:10:49;;;;;;;5.00;3.88;;;6.60;99.90;;;;;;5052129;28;20041;-37
2023/10/17 00:15:56;;;;;;;7.25;4.18;;;6.60;99.90;;;;;;5051907;28;20045;-34
2023/10/17 00:18:25;;;;;;;7.05;4.40;;;6.60;99.90;;;;;;5052109;28;20033;-35
2023/10/17 00:20:53;;;;;;;5.43;4.30;;;6.50;99.90;;;;;;5050668;28;20329;-34
2023/10/17 00:23:22;;;;;;;5.80;4.32;;;6.60;99.90;;;;;;5051835;28;20037;-33
2023/10/17 00:25:51;;;;;;;6.20;4.07;;;6.60;99.90;;;;;;5051974;28;20080;-34
2023/10/17 00:28:23;;;;;;;7.57;4.63;;;6.60;99.90;;;;;;5052333;28;20072;-38
2023/10/17 00:30:49;;;;;;;5.95;4.47;;;6.60;99.90;;;;;;5050487;28;20049;-36
2023/10/17 00:33:21;;;;;;;7.10;4.38;;;6.60;99.90;;;;;;5051809;28;20040;-34
2023/10/17 00:35:48;;;;;;;4.82;4.40;;;6.60;99.90;;;;;;5051965;28;20041;-34
2023/10/17 00:38:15;;;;;;;7.05;4.93;;;6.60;99.90;;;;;;5052080;28;20043;-33
2023/10/17 00:43:11;;;;;;;7.40;5.57;;;6.60;99.90;;;;;;5051729;28;20041;-35
2023/10/17 00:45:38;;;;;;;5.55;5.03;;;6.60;99.90;;;;;;5051770;28;20044;-34
2023/10/17 00:48:08;;;;;;;5.45;4.82;;;6.50;99.90;;;;;;5051715;28;20094;-34
2023/10/17 00:50:37;;;;;;;9.10;5.18;;;6.50;99.90;;;;;;5051821;28;20081;-33
2023/10/17 00:53:06;;;;;;;8.05;5.38;;;6.50;99.90;;;;;;5051968;28;20514;-34
2023/10/17 00:55:35;;;;;;;6.18;5.00;;;6.50;99.90;;;;;;5051613;28;20044;-34
2023/10/17 00:58:03;;;;;;;7.50;5.20;;;6.50;99.90;;;;;;5052736;28;20037;-34
2023/10/17 01:00:47;;;;;;;5.72;4.97;;;6.50;99.90;;;;;;5055194;28;20142;-35
2023/10/17 01:03:13;;;;;;;8.00;5.53;;;6.50;99.90;;;;;;5055232;28;20037;-35
2023/10/17 01:05:57;;;;;;;4.95;4.35;;;6.50;99.90;;;;;;5055129;28;20056;-34
2023/10/17 01:08:27;;;;;;;6.38;5.10;;;6.50;99.90;;;;;;5055080;28;20052;-34
2023/10/17 01:10:53;;;;;;;6.05;4.78;;;6.40;99.90;;;;;;5055247;28;20373;-34
2023/10/17 01:13:18;;;;;;;6.15;5.13;;;6.40;99.90;;;;;;5054907;28;20037;-34
2023/10/17 01:15:44;;;;;;;8.15;5.07;;;6.40;99.90;;;;;;5054777;28;20044;-33
2023/10/17 01:18:10;;;;;;;6.15;4.38;;;6.40;99.90;;;;;;5054808;28;20043;-36
2023/10/17 01:20:36;;;;;;;9.23;5.55;;;6.40;99.90;;;;;;5054350;28;20538;-35
2023/10/17 01:23:02;;;;;;;6.57;4.80;;;6.30;99.90;;;;;;5053370;28;20110;-34
2023/10/17 01:25:35;;;;;;;6.28;4.72;;;6.30;99.90;;;;;;5054634;28;20045;-36
2023/10/17 01:28:00;;;;;;;6.22;5.28;;;6.30;99.90;;;;;;5054249;28;20133;-33
2023/10/17 01:30:29;;;;;;;6.97;5.20;;;6.20;99.90;;;;;;5054236;28;20127;-34
2023/10/17 01:32:56;;;;;;;6.50;4.97;;;6.20;99.90;;;;;;5053974;28;20068;-35
2023/10/17 01:35:23;;;;;;;7.97;5.40;;;6.10;99.90;;;;;;5054411;28;20380;-34
2023/10/17 01:37:49;;;;;;;8.10;5.28;;;6.10;99.90;;;;;;5054091;28;20045;-34
2023/10/17 01:40:28;;;;;;;7.15;5.15;;;6.10;99.90;;;;;;5053952;28;20033;-34
2023/10/17 01:42:57;;;;;;;5.50;4.50;;;6.10;99.90;;;;;;5054445;28;20045;-34
2023/10/17 01:45:25;;;;;;;6.03;4.90;;;6.00;99.90;;;;;;5053840;28;20040;-34
2023/10/17 01:47:51;;;;;;;7.10;4.80;;;6.00;99.90;;;;;;5054015;28;20563;-36
2023/10/17 01:50:19;;;;;;;6.93;4.78;;;5.90;99.90;;;;;;5053878;28;20040;-35
2023/10/17 01:52:45;;;;;;;5.55;4.78;;;5.90;99.90;;;;;;5054078;28;20051;-34
2023/10/17 01:55:15;;;;;;;6.07;4.70;;;5.90;99.90;;;;;;5054031;28;20038;-34
2023/10/17 01:57:44;;;;;;;8.25;5.07;;;5.80;99.90;;;;;;5052403;28;20052;-35
2023/10/17 02:01:00;;;;;;;9.00;5.70;;;5.80;99.90;;;;;;5053936;28;20116;-33
2023/10/17 02:03:00;;;;;;;6.72;5.25;;;5.80;99.90;;;;;;5046064;28;20526;-35
2023/10/17 02:05:26;;;;;;;6.47;4.88;;;5.80;99.90;;;;;;5052702;28;20068;-34
2023/10/17 02:07:52;;;;;;;6.75;4.65;;;5.70;99.90;;;;;;5052572;28;20068;-36
2023/10/17 02:10:18;;;;;;;6.70;4.30;;;5.70;99.90;;;;;;5053486;28;20041;-35
2023/10/17 02:12:49;;;;;;;6.90;4.43;;;5.70;99.90;;;;;;5053535;28;20187;-35
2023/10/17 02:15:24;;;;;;;6.15;4.18;;;5.60;99.90;;;;;;5053486;28;20040;-34
2023/10/17 02:17:52;;;;;;;9.43;5.15;;;5.60;99.90;;;;;;5053601;28;20492;-33
2023/10/17 02:20:21;;;;;;;8.13;4.22;;;5.60;99.90;;;;;;5051848;28;20037;-35
2023/10/17 02:22:49;;;;;;;5.05;4.13;;;5.60;99.90;;;;;;5053121;28;20032;-34
2023/10/17 02:25:18;;;;;;;7.18;4.35;;;5.50;99.90;;;;;;5053463;28;20045;-37
2023/10/17 02:27:44;;;;;;;6.03;3.90;;;5.50;99.90;;;;;;5053159;28;20507;-34
2023/10/17 02:30:12;;;;;;;8.38;4.50;;;5.50;99.90;;;;;;5052927;28;20053;-33
2023/10/17 02:32:43;;;;;;;9.82;4.70;;;5.50;99.90;;;;;;5053311;28;20052;-35
2023/10/17 02:35:14;;;;;;;8.48;4.55;;;5.50;99.90;;;;;;5053291;28;20134;-35
2023/10/17 02:37:43;;;;;;;7.50;4.30;;;5.50;99.90;;;;;;5052861;28;20045;-36
2023/10/17 02:40:21;;;;;;;6.57;4.35;;;5.40;99.90;;;;;;5052930;28;20036;-36
2023/10/17 02:42:47;;;;;;;8.18;4.63;;;5.40;99.90;;;;;;5052844;28;20041;-35
2023/10/17 02:45:14;;;;;;;6.50;4.55;;;5.40;99.90;;;;;;5052753;28;20400;-35
2023/10/17 02:47:43;;;;;;;4.90;4.25;;;5.40;99.90;;;;;;5066621;28;20098;-35
2023/10/17 02:50:41;;;;;;;5.10;4.60;;;5.30;99.90;;;;;;5066990;28;20036;-41
2023/10/17 02:53:12;;;;;;;8.07;4.75;;;5.30;99.90;;;;;;5070030;28;20109;-36
2023/10/17 02:55:38;;;;;;;5.60;4.35;;;5.30;99.90;;;;;;5065456;28;20032;-36
2023/10/17 02:58:04;;;;;;;12.50;5.65;;;5.30;99.90;;;;;;5064896;28;20461;-35
2023/10/17 03:00:36;;;;;;;5.85;4.75;;;5.30;99.90;;;;;;5065994;28;20024;-35
2023/10/17 03:03:14;;;;;;;9.52;4.97;;;5.30;99.90;;;;;;5065897;28;20680;-36
2023/10/17 03:05:53;;;;;;;6.13;5.35;;;5.20;99.90;;;;;;5063187;28;20037;-35
2023/10/17 03:08:19;;;;;;;6.97;5.38;;;5.20;99.90;;;;;;5055947;28;20040;-36
2023/10/17 03:10:45;;;;;;;7.30;4.82;;;5.20;99.90;;;;;;5065821;28;20040;-36
2023/10/17 03:13:23;;;;;;;8.25;5.28;;;5.10;99.90;;;;;;5064514;28;20048;-35
2023/10/17 03:15:57;;;;;;;6.78;5.22;;;5.20;99.90;;;;;;5060745;28;20048;-35
2023/10/17 03:18:23;;;;;;;7.63;5.28;;;5.10;99.90;;;;;;5062883;28;20052;-36
2023/10/17 03:20:52;;;;;;;6.10;5.28;;;5.10;99.90;;;;;;5064249;28;20044;-35
2023/10/17 03:23:28;;;;;;;6.18;5.00;;;5.10;99.90;;;;;;5061335;28;20099;-36
2023/10/17 03:26:00;;;;;;;8.43;5.40;;;5.00;99.90;;;;;;5062827;28;20165;-37
2023/10/17 03:28:36;;;;;;;5.93;4.75;;;5.00;99.90;;;;;;5063608;28;20047;-36
2023/10/17 03:31:10;;;;;;;7.00;5.25;;;5.00;99.90;;;;;;5061284;28;20101;-38
2023/10/17 03:33:40;;;;;;;6.50;5.00;;;5.00;99.90;;;;;;5064109;28;20480;-35
2023/10/17 03:36:39;;;;;;;6.97;4.60;;;4.90;99.90;;;;;;5064833;28;20131;-38
2023/10/17 03:38:53;;;;;;;6.72;5.13;;;4.90;99.90;;;;;;5063359;28;20040;-37
2023/10/17 03:41:24;;;;;;;6.47;5.05;;;4.90;99.90;;;;;;5064604;28;20047;-37
2023/10/17 03:43:52;;;;;;;8.85;5.25;;;4.80;99.90;;;;;;5063450;28;20441;-39
2023/10/17 03:46:35;;;;;;;8.85;5.35;;;4.80;99.90;;;;;;5063105;28;20029;-38
2023/10/17 03:49:03;;;;;;;6.40;4.88;;;4.80;99.90;;;;;;5064290;28;20120;-35
2023/10/17 03:51:30;;;;;;;7.43;5.28;;;4.70;99.90;;;;;;5066217;28;20381;-36
2023/10/17 03:54:06;;;;;;;6.78;4.55;;;4.70;99.90;;;;;;5063745;28;20092;-37
2023/10/17 03:56:44;;;;;;;6.13;4.60;;;4.70;99.90;;;;;;5062751;28;20443;-38
2023/10/17 04:01:39;;;;;;;5.35;4.22;;;4.60;99.90;;;;;;5063848;28;20052;-33
2023/10/17 04:04:05;;;;;;;5.03;4.45;;;4.60;99.90;;;;;;5065632;28;20063;-36
2023/10/17 04:06:34;;;;;;;6.32;4.28;;;4.60;99.90;;;;;;5064507;28;20037;-39
2023/10/17 04:09:52;;;;;;;6.35;5.15;;;4.50;99.90;;;;;;5067898;28;20039;-35
2023/10/17 04:11:55;;;;;;;8.38;6.18;;;4.50;99.90;;;;;;5051695;28;20052;-36
2023/10/17 04:14:28;;;;;;;6.43;5.70;;;4.50;99.90;;;;;;5055980;28;20036;-34
2023/10/17 04:16:55;;;;;;;6.93;5.20;;;4.50;99.90;;;;;;5061808;28;20090;-35
2023/10/17 04:19:22;;;;;;;6.20;5.60;;;4.40;99.90;;;;;;5065694;28;20450;-37
2023/10/17 04:24:34;;;;;;;7.47;4.85;;;4.40;99.90;;;;;;5064425;28;20515;-38
2023/10/17 04:29:42;;;;;;;8.82;5.30;;;4.40;99.90;;;;;;5067493;28;20088;-34
2023/10/17 04:32:14;;;;;;;6.20;5.30;;;4.30;99.90;;;;;;5055689;28;20037;-34
2023/10/17 04:34:46;;;;;;;7.97;4.88;;;4.20;99.90;;;;;;5067702;28;20097;-34
2023/10/17 04:37:16;;;;;;;7.85;5.32;;;4.20;99.90;;;;;;5065436;28;20556;-36
2023/10/17 04:39:48;;;;;;;6.90;5.07;;;4.20;99.90;;;;;;5066584;28;20044;-39
2023/10/17 04:42:25;;;;;;;5.18;4.68;;;4.20;99.90;;;;;;5072793;28;20044;-35
2023/10/17 04:44:51;;;;;;;5.07;4.35;;;4.20;99.90;;;;;;5066349;28;20119;-34
2023/10/17 04:49:54;;;;;;;8.90;4.72;;;4.10;99.90;;;;;;5071776;28;20089;-36
2023/10/17 04:52:30;;;;;;;6.30;4.43;;;4.10;99.90;;;;;;5066589;28;20041;-35
2023/10/17 04:55:18;;;;;;;4.82;3.70;;;4.10;99.90;;;;;;5067981;28;20044;-34
2023/10/17 05:00:42;;;;;;;6.03;4.40;;;4.20;99.90;;;;;;5068907;28;20458;-35
2023/10/17 05:03:14;;;;;;;6.38;4.55;;;4.20;99.90;;;;;;5059827;28;20037;-34
2023/10/17 05:08:33;;;;;;;5.18;4.55;;;4.20;99.90;;;;;;5067143;28;20508;-38
2023/10/17 06:16:58;;;;;;;7.95;6.07;;;4.20;99.90;;;;;;5068671;28;19927;-33
2023/10/17 06:19:27;;;;;;;8.02;6.95;;;4.20;99.90;;;;;;5063970;28;20067;-34
2023/10/17 06:30:28;;;;;;;8.18;6.65;;;4.10;99.90;;;;;;5028597;28;20037;-35
2023/10/17 06:33:05;;;;;;;8.07;7.28;;;4.10;99.90;;;;;;5063319;28;20105;-34
2023/10/17 06:35:32;;;;;;;9.45;7.47;;;4.10;99.90;;;;;;5057026;28;20041;-35
2023/10/17 06:37:59;;;;;;;8.40;7.43;;;4.10;99.90;;;;;;5067819;28;20033;-35
2023/10/17 06:40:32;;;;;;;10.10;7.70;;;4.10;99.90;;;;;;5061880;28;20082;-35
2023/10/17 06:42:59;;;;;;;8.00;7.20;;;4.10;99.90;;;;;;5060326;28;20029;-34
2023/10/17 06:45:26;;;;;;;10.20;7.40;;;4.10;99.90;;;;;;5064073;28;20037;-35
2023/10/17 06:47:57;;;;;;;8.52;6.53;;;4.20;99.90;;;;;;5066927;28;20075;-35
2023/10/17 06:53:27;;;;;;;7.80;6.95;;;4.20;99.90;;;;;;5056556;28;20452;-34
2023/10/17 06:55:58;;;;;;;7.50;6.40;;;4.20;99.90;;;;;;5061174;28;20032;-35
2023/10/17 06:58:27;;;;;;;8.32;6.65;;;4.20;99.90;;;;;;5065066;28;20052;-36
2023/10/17 07:00:53;;;;;;;7.15;6.47;;;4.30;99.90;;;;;;5066015;28;20486;-35
2023/10/17 07:03:26;;;;;;;7.82;6.03;;;4.30;99.90;;;;;;5064364;28;20036;-35
2023/10/17 07:05:54;;;;;;;7.30;6.07;;;4.30;99.90;;;;;;5065097;28;20047;-35
2023/10/17 07:08:20;;;;;;;8.27;7.22;;;4.30;99.90;;;;;;5060450;28;20047;-35
2023/10/17 07:11:02;;;;;;;9.43;7.45;;;4.40;99.90;;;;;;5064443;28;20499;-35
2023/10/17 07:13:54;;;;;;;9.20;6.95;;;4.40;99.90;;;;;;5064605;28;20037;-37
2023/10/17 07:16:32;;;;;;;11.27;8.18;;;4.50;99.90;;;;;;5065179;28;20044;-34
2023/10/17 07:19:09;;;;;;;10.75;7.00;;;4.50;99.90;;;;;;5070580;28;20036;-36
2023/10/17 07:21:57;;;;;;;9.70;8.70;;;4.60;99.90;;;;;;5064619;28;20063;-36
2023/10/17 07:24:24;;;;;;;12.00;8.77;;;4.60;99.90;;;;;;5064866;28;20041;-36
2023/10/17 07:26:53;;;;;;;10.02;8.32;;;4.70;99.90;;;;;;5063518;28;20178;-37
2023/10/17 07:29:23;;;;;;;10.05;8.45;;;4.80;99.90;;;;;;5055029;28;20120;-37
2023/10/17 07:31:53;;;;;;;10.93;9.10;;;4.80;99.90;;;;;;5062982;28;20558;-37
2023/10/17 07:34:21;;;;;;;12.20;10.73;;;4.90;99.90;;;;;;5064339;28;20388;-37
2023/10/17 07:36:55;;;;;;;16.92;12.52;;;5.00;99.90;;;;;;5059309;28;20044;-35
2023/10/17 07:39:24;;;;;;;17.33;14.20;;;5.10;99.90;;;;;;5062403;28;20036;-35
2023/10/17 07:41:53;;;;;;;18.20;14.40;;;5.20;99.90;;;;;;5063454;28;20036;-35
2023/10/17 07:44:25;;;;;;;17.90;13.88;;;5.30;99.90;;;;;;5058333;28;20044;-35
2023/10/17 07:49:43;;;;;;;14.75;11.07;;;5.90;99.90;;;;;;5067955;28;20506;-35
2023/10/17 07:52:12;;;;;;;14.85;11.50;;;6.10;99.90;;;;;;5060876;28;20112;-35
2023/10/17 07:55:17;;;;;;;12.68;11.27;;;6.20;99.90;;;;;;5063718;28;20032;-35
2023/10/17 07:57:44;;;;;;;14.27;11.45;;;6.30;99.90;;;;;;5066407;28;20512;-35
2023/10/17 08:03:17;;;;;;;12.98;10.07;;;6.60;99.90;;;;;;5065053;28;20044;-36
2023/10/17 08:06:05;;;;;;;12.75;9.13;;;7.00;99.90;;;;;;5065513;28;20473;-36
2023/10/17 08:08:41;;;;;;;9.35;7.78;;;7.60;99.90;;;;;;5073435;28;20047;-35
2023/10/17 08:11:20;;;;;;;8.50;7.55;;;8.30;99.90;;;;;;5064436;28;20114;-36
2023/10/17 08:13:45;;;;;;;6.25;5.45;;;9.00;99.90;;;;;;5055547;28;20146;-33
2023/10/17 08:16:24;;;;;;;8.00;7.13;;;9.70;99.90;;;;;;5055812;28;20065;-33
2023/10/17 08:18:58;;;;;;;6.43;5.75;;;10.30;99.90;;;;;;5055836;28;20041;-35
2023/10/17 08:23:57;;;;;;;6.07;4.90;;;11.20;99.90;;;;;;5055987;28;20400;-35
2023/10/17 08:26:28;;;;;;;6.45;5.28;;;11.60;99.90;;;;;;5055379;28;20052;-34
2023/10/17 08:28:56;;;;;;;8.50;5.00;;;12.00;99.90;;;;;;5056576;28;20051;-35
2023/10/17 08:31:44;;;;;;;5.85;4.35;;;12.20;99.90;;;;;;5055412;28;20507;-34
2023/10/17 08:34:14;;;;;;;5.90;4.82;;;12.50;99.90;;;;;;5053876;28;20049;-33
2023/10/17 08:36:46;;;;;;;5.13;4.20;;;12.90;99.90;;;;;;5055860;28;20110;-33
2023/10/17 08:42:11;;;;;;;5.22;3.63;;;13.30;99.90;;;;;;5055151;28;20048;-35
2023/10/17 08:44:39;;;;;;;5.30;3.60;;;13.60;99.90;;;;;;5055160;28;20048;-36
2023/10/17 08:47:07;;;;;;;3.70;3.38;;;13.90;99.90;;;;;;5054790;28;20123;-34
2023/10/17 08:49:33;;;;;;;3.92;3.10;;;14.10;99.90;;;;;;5055609;28;20055;-34
2023/10/17 08:51:59;;;;;;;4.32;3.05;;;14.30;99.90;;;;;;5055310;28;20498;-34
2023/10/17 08:54:28;;;;;;;3.90;2.53;;;14.30;99.90;;;;;;5054844;28;20049;-34
2023/10/17 08:56:54;;;;;;;5.30;2.92;;;14.20;99.90;;;;;;5054955;28;20041;-34
2023/10/17 08:59:34;;;;;;;3.40;2.65;;;14.30;99.90;;;;;;5054964;28;20499;-35
2023/10/17 09:02:03;;;;;;;2.83;2.40;;;14.50;99.90;;;;;;5053614;28;20079;-35
2023/10/17 09:04:33;;;;;;;3.47;2.40;;;14.60;99.90;;;;;;5036833;28;20073;-33
2023/10/17 09:06:59;;;;;;;5.07;2.63;;;14.90;99.90;;;;;;5055130;28;20115;-35
2023/10/17 09:09:29;;;;;;;3.75;2.42;;;15.30;99.90;;;;;;5054958;28;20049;-35
2023/10/17 09:14:43;;;;;;;4.78;2.00;;;15.50;99.90;;;;;;5054798;28;20388;-36
2023/10/17 09:17:30;;;;;;;2.85;1.92;;;15.70;99.90;;;;;;5054504;28;20045;-35
2023/10/17 09:19:57;;;;;;;4.45;2.30;;;15.90;99.90;;;;;;5052971;28;20045;-34
2023/10/17 09:22:23;;;;;;;3.38;2.20;;;16.10;99.90;;;;;;5054736;28;20045;-35
2023/10/17 09:24:49;;;;;;;4.45;2.10;;;16.20;99.90;;;;;;5054306;28;20136;-38
2023/10/17 09:27:19;;;;;;;3.60;1.98;;;16.40;99.90;;;;;;5054540;28;20392;-35
2023/10/17 09:29:50;;;;;;;3.55;2.00;;;16.30;99.90;;;;;;5054178;28;20045;-34
2023/10/17 09:32:36;;;;;;;3.58;1.60;;;16.40;99.90;;;;;;5052737;28;20047;-35
2023/10/17 09:35:10;;;;;;;3.45;1.52;;;16.50;99.90;;;;;;5058533;28;20032;-40
2023/10/17 09:37:37;;;;;;;2.83;1.20;;;16.60;99.90;;;;;;5062278;28;20478;-36
2023/10/17 09:40:12;;;;;;;1.88;1.08;;;16.60;99.90;;;;;;5064016;28;20045;-40
2023/10/17 09:42:40;;;;;;;2.65;1.15;;;16.80;99.90;;;;;;5062943;28;20029;-37
2023/10/17 09:45:08;;;;;;;3.88;1.35;;;16.90;99.90;;;;;;5067146;28;21023;-39
2023/10/17 09:47:35;;;;;;;3.28;1.08;;;17.10;99.90;;;;;;5067849;28;20544;-40
2023/10/17 09:50:03;;;;;;;3.05;0.80;;;17.40;99.90;;;;;;5067501;28;20044;-37
2023/10/17 09:52:30;;;;;;;3.25;1.20;;;17.60;99.90;;;;;;5063852;28;21095;-38
2023/10/17 09:55:04;;;;;;;3.30;1.38;;;17.60;99.90;;;;;;5066202;28;20415;-40
2023/10/17 09:57:31;;;;;;;;;;;17.30;99.10;;;;;;5064638;28;20036;-39
2023/10/17 10:00:14;;;;;;;2.03;0.93;;;17.10;95.00;;;;;;5064942;28;19925;-36
2023/10/17 10:02:43;;;;;;;1.58;0.80;;;17.40;98.10;;;;;;5066266;28;20036;-38
2023/10/17 10:05:28;;;;;;;8.55;1.50;;;17.60;99.90;;;;;;5063176;28;20045;-37
2023/10/17 10:07:55;;;;;;;25.42;2.63;;;17.60;94.20;;;;;;5066943;28;20044;-39
2023/10/17 10:10:44;;;;;;;3.95;0.90;;;17.20;97.70;;;;;;5062525;28;20032;-39
2023/10/17 10:13:13;;;;;;;1.88;0.73;;;16.80;93.50;;;;;;5067421;28;20039;-38
2023/10/17 10:15:51;;;;;;;1.10;0.95;;;16.30;96.90;;;;;;5067373;28;20119;-35
2023/10/17 10:18:40;;;;;;;1.30;0.80;;;15.80;94.50;;;;;;5066172;28;20119;-39
2023/10/17 10:21:12;;;;;;;3.70;0.90;;;15.90;96.60;;;;;;5063280;28;20432;-41
2023/10/17 10:23:42;;;;;;;1.58;0.73;;;15.80;98.00;;;;;;5061368;28;20029;-40
2023/10/17 10:26:11;;;;;;;1.95;1.00;;;15.70;96.60;;;;;;5061286;28;20040;-37
2023/10/17 10:28:40;;;;;;;2.15;0.80;;;15.50;96.70;;;;;;5062507;28;20053;-38
2023/10/17 10:31:38;;;;;;;1.73;0.70;;;15.60;95.90;;;;;;5064046;28;20089;-39
2023/10/17 10:34:06;;;;;;;2.47;0.98;;;15.60;94.10;;;;;;5064863;28;20458;-40
2023/10/17 10:36:33;;;;;;;0.70;0.60;;;15.60;95.80;;;;;;5064282;28;20436;-41
2023/10/17 10:39:12;;;;;;;1.80;0.73;;;15.40;94.50;;;;;;5068078;28;20037;-40
2023/10/17 10:41:54;;;;;;;0.70;0.70;;;15.10;94.80;;;;;;5059379;28;20467;-37
2023/10/17 10:44:20;;;;;;;4.85;1.33;;;14.70;95.50;;;;;;5062869;28;20045;-41
2023/10/17 10:46:46;;;;;;;2.08;0.82;;;14.60;96.00;;;;;;5068603;28;20499;-37
2023/10/17 10:49:12;;;;;;;1.42;0.95;;;14.70;96.80;;;;;;5059898;28;20438;-37
2023/10/17 10:51:47;;;;;;;1.67;1.00;;;15.00;97.10;;;;;;5065653;28;20097;-36
2023/10/17 10:54:13;;;;;;;2.15;0.95;;;15.20;95.80;;;;;;5067028;28;20044;-38
2023/10/17 10:56:39;;;;;;;3.03;1.42;;;15.20;95.70;;;;;;5061501;28;20495;-32
2023/10/17 10:59:05;;;;;;;3.22;1.10;;;14.90;95.50;;;;;;5072882;28;20036;-35
2023/10/17 11:01:30;;;;;;;2.20;0.95;;;14.60;95.50;;;;;;5072839;28;20403;-35
2023/10/17 11:03:58;;;;;;;3.05;1.10;;;14.30;95.80;;;;;;5071662;28;20483;-34
2023/10/17 11:06:29;;;;;;;2.97;1.15;;;14.00;95.80;;;;;;5072479;28;20036;-35
2023/10/17 11:08:55;;;;;;;3.30;1.23;;;13.80;96.30;;;;;;5072565;28;20399;-35
2023/10/17 11:11:20;;;;;;;3.40;1.30;;;13.70;97.10;;;;;;5072635;28;20036;-34
2023/10/17 11:13:56;;;;;;;2.67;1.27;;;13.60;97.40;;;;;;5072391;28;20093;-34
2023/10/17 11:16:27;;;;;;;2.30;1.20;;;13.60;97.90;;;;;;5072521;28;20044;-35
2023/10/17 11:18:53;;;;;;;3.85;1.35;;;13.40;98.00;;;;;;5072612;28;20457;-36
2023/10/17 11:21:21;;;;;;;4.25;1.30;;;13.30;97.80;;;;;;5072263;28;20072;-35
2023/10/17 11:23:50;;;;;;;1.65;1.00;;;13.30;98.50;;;;;;5072509;28;20494;-35
2023/10/17 11:26:19;;;;;;;3.05;1.20;;;13.30;99.50;;;;;;5072433;28;20037;-34
2023/10/17 11:28:52;;;;;;;2.60;0.80;;;13.30;99.40;;;;;;5071891;28;20146;-36
2023/10/17 11:31:22;;;;;;;2.58;1.17;;;13.30;99.40;;;;;;5072404;28;20555;-34
2023/10/17 11:34:04;;;;;;;2.28;1.00;;;13.40;99.30;;;;;;5072153;28;20124;-35
2023/10/17 11:36:36;;;;;;;2.22;1.10;;;13.50;98.70;;;;;;5072141;28;20093;-33
2023/10/17 11:39:05;;;;;;;2.17;0.90;;;13.70;98.30;;;;;;5072359;28;20040;-34
2023/10/17 11:41:39;;;;;;;2.53;0.90;;;13.90;98.40;;;;;;5071497;28;20041;-34
2023/10/17 11:44:09;;;;;;;2.28;0.90;;;14.00;97.10;;;;;;5072258;28;20032;-32
2023/10/17 11:46:37;;;;;;;5.45;1.60;;;14.10;96.10;;;;;;5072091;28;20047;-33
2023/10/17 11:49:26;;;;;;;3.58;1.10;;;14.00;95.90;;;;;;5072068;28;20501;-37
2023/10/17 11:52:04;;;;;;;1.98;1.10;;;13.90;96.40;;;;;;5072195;28;20055;-35
2023/10/17 11:54:31;;;;;;;1.20;1.10;;;13.70;96.70;;;;;;5071838;28;20056;-35
2023/10/17 11:57:12;;;;;;;2.92;1.15;;;13.60;97.70;;;;;;5072112;28;20051;-36
2023/10/17 11:59:38;;;;;;;2.53;1.13;;;13.70;98.70;;;;;;5071974;28;20072;-36
2023/10/17 12:02:04;;;;;;;2.83;1.20;;;13.60;98.30;;;;;;5071776;28;20079;-36
2023/10/17 12:04:30;;;;;;;2.15;1.00;;;13.50;98.30;;;;;;5072170;28;20510;-35
2023/10/17 12:06:56;;;;;;;2.38;1.35;;;13.50;98.50;;;;;;5071915;28;20109;-36
2023/10/17 12:11:49;;;;;;;3.95;1.48;;;13.80;99.30;;;;;;5072039;28;20048;-34
2023/10/17 12:14:19;;;;;;;1.60;1.17;;;14.00;98.50;;;;;;5071635;28;20033;-34
2023/10/17 12:16:58;;;;;;;2.13;1.35;;;14.20;98.10;;;;;;5071913;28;20047;-34
2023/10/17 12:19:28;;;;;;;3.38;1.55;;;14.50;98.70;;;;;;5071720;28;20045;-33
2023/10/17 12:21:55;;;;;;;2.58;1.38;;;15.20;99.70;;;;;;5072101;28;20037;-32
2023/10/17 12:24:28;;;;;;;2.33;1.05;;;16.10;98.70;;;;;;5071607;28;20045;-34
2023/10/17 12:26:55;;;;;;;1.40;0.93;;;17.20;97.60;;;;;;5071931;28;20119;-35
2023/10/17 12:29:25;;;;;;;3.47;1.20;;;18.30;96.60;;;;;;5071262;28;20063;-34
2023/10/17 12:31:53;;;;;;;2.92;1.10;;;19.40;94.00;;;;;;5071676;28;20048;-35
2023/10/17 12:34:20;;;;;;;3.80;1.23;;;20.10;90.50;;;;;;5071461;28;20043;-36
2023/10/17 12:36:46;;;;;;;3.70;1.60;;;20.70;84.60;;;;;;5071455;28;20314;-36
2023/10/17 12:39:14;;;;;;;2.40;1.10;;;21.20;79.20;;;;;;5071749;28;20106;-36
2023/10/17 12:41:39;;;;;;;2.65;1.20;;;21.60;75.70;;;;;;5071680;28;20479;-36
2023/10/17 12:44:05;;;;;;;2.20;0.88;;;21.40;71.70;;;;;;5071578;28;20043;-36
2023/10/17 12:46:31;;;;;;;2.28;1.10;;;21.70;73.00;;;;;;5071748;28;20064;-36
2023/10/17 12:48:57;;;;;;;2.35;1.13;;;21.50;70.00;;;;;;5071212;28;20094;-36
2023/10/17 12:51:23;;;;;;;1.95;1.05;;;21.60;71.50;;;;;;5071197;28;20032;-34
2023/10/17 12:53:49;;;;;;;3.17;1.13;;;21.80;68.60;;;;;;5072303;28;20040;-34
2023/10/17 12:56:17;;;;;;;2.22;1.38;;;22.20;69.00;;;;;;5075487;28;20116;-39
2023/10/17 12:58:44;;;;;;;2.50;1.20;;;22.30;66.40;;;;;;5074914;28;20056;-37
2023/10/17 13:01:12;;;;;;;1.85;1.00;;;22.80;65.60;;;;;;5075153;28;20502;-34
2023/10/17 13:03:38;;;;;;;2.35;1.27;;;23.40;65.70;;;;;;5075433;28;20040;-36
2023/10/17 13:06:07;;;;;;;2.30;1.08;;;23.60;62.60;;;;;;5074902;28;20052;-36
2023/10/17 13:08:33;;;;;;;1.92;0.98;;;24.00;63.40;;;;;;5073650;28;20048;-36
2023/10/17 13:10:59;;;;;;;2.20;1.00;;;24.30;61.60;;;;;;5075044;28;20038;-35
2023/10/17 13:13:27;;;;;;;2.20;1.00;;;24.50;59.40;;;;;;5074554;28;20049;-36
2023/10/17 13:15:57;;;;;;;2.22;1.17;;;24.30;58.00;;;;;;5074734;28;20076;-35
2023/10/17 13:18:29;;;;;;;2.22;1.20;;;23.70;56.70;;;;;;5075006;28;20430;-32
2023/10/17 13:21:02;;;;;;;2.75;1.08;;;24.00;57.90;;;;;;5073288;28;20403;-31
2023/10/17 13:23:28;;;;;;;3.35;1.30;;;24.30;57.20;;;;;;5074919;28;20044;-34
2023/10/17 13:25:54;;;;;;;2.00;1.13;;;24.10;56.80;;;;;;5073268;28;20403;-35
2023/10/17 13:28:20;;;;;;;2.53;1.10;;;23.80;56.20;;;;;;5072385;28;20097;-34
2023/10/17 13:30:46;;;;;;;1.98;1.30;;;23.90;56.00;;;;;;5058186;28;20037;-34
2023/10/17 13:33:12;;;;;;;1.83;1.10;;;24.10;56.70;;;;;;5067232;28;20033;-36
2023/10/17 13:35:41;;;;;;;1.75;1.13;;;24.20;55.70;;;;;;5071449;28;20037;-34
2023/10/17 13:38:07;;;;;;;2.55;1.00;;;24.00;56.00;;;;;;5065592;28;20087;-34
2023/10/17 13:40:33;;;;;;;1.83;1.10;;;24.30;55.30;;;;;;5060065;28;20072;-34
2023/10/17 13:43:00;;;;;;;2.83;1.02;;;24.30;55.10;;;;;;5064466;28;20115;-34
2023/10/17 13:45:27;;;;;;;1.10;0.93;;;24.70;54.20;;;;;;5063187;28;20113;-35
2023/10/17 13:47:54;;;;;;;3.50;1.20;;;24.70;54.00;;;;;;5067892;28;20570;-34
2023/10/17 13:50:21;;;;;;;2.60;1.10;;;25.00;53.90;;;;;;5071148;28;20036;-35
2023/10/17 13:52:54;;;;;;;2.15;1.00;;;25.00;53.30;;;;;;5070376;28;20049;-35
2023/10/17 13:55:26;;;;;;;2.90;1.30;;;25.10;53.00;;;;;;5063552;28;20029;-36
2023/10/17 13:58:00;;;;;;;1.65;1.02;;;25.00;53.10;;;;;;5063348;28;20072;-36
2023/10/17 14:00:31;;;;;;;1.45;0.95;;;25.20;53.40;;;;;;5069387;28;20399;-36
2023/10/17 14:02:57;;;;;;;1.85;1.05;;;25.20;53.20;;;;;;5069865;28;20037;-36
2023/10/17 14:05:23;;;;;;;2.30;1.45;;;25.20;52.00;;;;;;5069213;28;20098;-38
2023/10/17 14:07:48;;;;;;;2.55;1.20;;;25.40;51.60;;;;;;5063988;28;20496;-35
2023/10/17 14:10:17;;;;;;;4.15;1.30;;;25.20;51.10;;;;;;5060761;28;20048;-36
2023/10/17 14:12:46;;;;;;;1.67;1.15;;;25.40;50.70;;;;;;5065315;28;20044;-37
2023/10/17 14:15:12;;;;;;;2.47;1.23;;;25.60;52.20;;;;;;5058458;28;20090;-37
2023/10/17 14:17:44;;;;;;;3.67;1.70;;;25.30;51.10;;;;;;5055067;28;20500;-36
2023/10/17 14:20:18;;;;;;;2.53;1.30;;;25.40;51.60;;;;;;5060609;28;20029;-36
2023/10/17 14:23:08;;;;;;;2.72;1.08;;;25.20;51.70;;;;;;5065119;28;20115;-39
2023/10/17 14:28:19;;;;;;;3.20;1.38;;;24.60;52.30;;;;;;5065535;28;20048;-37
2023/10/17 14:30:45;;;;;;;2.42;1.45;;;24.70;52.20;;;;;;5064206;28;20098;-35
2023/10/17 14:33:11;;;;;;;2.38;1.20;;;25.00;51.70;;;;;;5067984;28;20036;-36
2023/10/17 14:35:36;;;;;;;3.92;1.65;;;25.00;51.50;;;;;;5064377;28;20033;-36
2023/10/17 14:38:03;;;;;;;2.58;1.58;;;25.30;51.60;;;;;;5066022;28;20037;-38
2023/10/17 14:40:31;;;;;;;3.00;1.55;;;25.10;51.10;;;;;;5069903;28;20033;-38
2023/10/17 14:42:58;;;;;;;1.48;1.30;;;25.10;50.70;;;;;;5062789;28;20025;-35
2023/10/17 14:45:25;;;;;;;2.22;1.40;;;24.50;51.10;;;;;;5068257;28;20043;-35
2023/10/17 14:47:58;;;;;;;1.95;1.27;;;24.10;51.40;;;;;;5066737;28;20050;-36
2023/10/17 14:50:26;;;;;;;3.28;1.42;;;23.30;51.70;;;;;;5059807;28;20040;-39
2023/10/17 14:52:52;;;;;;;2.03;1.23;;;22.70;53.40;;;;;;5049557;28;20138;-37
2023/10/17 14:55:23;;;;;;;1.88;1.33;;;22.30;53.90;;;;;;5065709;28;20032;-36
2023/10/17 14:57:49;;;;;;;1.73;1.10;;;22.00;54.50;;;;;;5060032;28;20048;-36
2023/10/17 15:00:16;;;;;;;2.90;1.20;;;21.50;54.20;;;;;;5070848;28;20033;-36
2023/10/17 15:02:44;;;;;;;2.13;1.48;;;21.10;54.60;;;;;;5071344;28;20072;-38
2023/10/17 15:05:13;;;;;;;1.73;1.20;;;20.30;55.80;;;;;;5064360;28;20054;-35